Time;durP1;ratioP1;P1;durP2;ratioP2;P2;SDS_P1;SDS_P2;PMS_P1;PMS_P2;Temp;Humidity;BMP_temperature;BMP_pressure;BME280_temperature;BME280_humidity;BME280_pressure;Samples;Min_cycle;Max_cycle;Signal;HPM_P1;HPM_P2
2024/03/16 00:02:20;;;;;;;1.95;1.20;;;;;;;11.57;100.00;97600.00;1222707;75;2930288;-66
2024/03/16 00:04:53;;;;;;;2.20;1.30;;;;;;;11.58;100.00;97603.47;1222962;75;2928628;-66
2024/03/16 00:07:27;;;;;;;2.90;1.40;;;;;;;11.46;100.00;97600.63;1223951;75;2922176;-66
2024/03/16 00:10:00;;;;;;;2.40;1.60;;;;;;;11.37;100.00;97598.03;1223629;75;2929011;-65
2024/03/16 00:12:34;;;;;;;4.55;1.80;;;;;;;11.36;100.00;97606.75;1222620;75;3006973;-67
2024/03/16 00:15:10;;;;;;;2.65;1.70;;;;;;;11.30;100.00;97612.16;1223972;75;2922885;-67
2024/03/16 00:17:43;;;;;;;1.65;1.40;;;;;;;11.35;100.00;97600.50;1223164;75;2933211;-66
2024/03/16 00:20:17;;;;;;;1.50;1.30;;;;;;;11.29;100.00;97594.97;1223962;75;2926356;-66
2024/03/16 00:22:50;;;;;;;2.70;1.50;;;;;;;11.33;100.00;97599.47;1222736;75;2980246;-65
2024/03/16 00:25:22;;;;;;;2.45;1.25;;;;;;;11.29;100.00;97603.19;1222643;75;2925300;-66
2024/03/16 00:27:55;;;;;;;4.20;2.00;;;;;;;11.31;100.00;97616.41;1208403;75;4074337;-68
2024/03/16 00:30:31;;;;;;;2.35;1.75;;;;;;;11.07;100.00;97625.59;1224299;75;2926266;-66
2024/03/16 00:33:04;;;;;;;2.80;1.80;;;;;;;11.23;100.00;97629.00;1223624;67;2944696;-66
2024/03/16 00:35:37;;;;;;;2.40;1.60;;;;;;;11.20;100.00;97630.72;1224381;75;2919006;-65
2024/03/16 00:38:10;;;;;;;2.05;1.60;;;;;;;11.17;100.00;97626.22;1222786;75;2937915;-66
2024/03/16 00:40:43;;;;;;;2.60;1.60;;;;;;;11.18;100.00;97635.91;1222167;75;2943455;-66
2024/03/16 00:43:18;;;;;;;3.35;1.80;;;;;;;11.12;100.00;97637.13;1224879;75;2922943;-64
2024/03/16 00:45:53;;;;;;;2.40;1.50;;;;;;;11.20;100.00;97640.94;1223709;75;2932324;-67
2024/03/16 00:48:26;;;;;;;2.20;1.50;;;;;;;11.15;100.00;97636.88;1223206;75;2995806;-66
2024/03/16 00:50:59;;;;;;;3.50;1.55;;;;;;;11.00;100.00;97633.47;1224346;75;2917261;-66
2024/03/16 00:53:32;;;;;;;2.55;1.55;;;;;;;10.84;100.00;97637.50;1222274;75;2958669;-66
2024/03/16 00:56:05;;;;;;;5.25;3.25;;;;;;;10.81;100.00;97635.72;1219699;75;2969714;-67
2024/03/16 00:58:38;;;;;;;3.40;1.95;;;;;;;10.77;100.00;97640.63;1189382;75;5773386;-66
2024/03/16 01:01:13;;;;;;;3.55;1.80;;;;;;;10.71;100.00;97632.34;1224305;75;2923998;-65
2024/03/16 01:03:46;;;;;;;3.15;1.85;;;;;;;10.80;100.00;97636.94;1225755;75;2930741;-69
2024/03/16 01:06:19;;;;;;;3.80;1.40;;;;;;;11.03;100.00;97636.00;1225058;75;2934012;-68
2024/03/16 01:08:52;;;;;;;2.80;1.40;;;;;;;10.99;100.00;97640.94;1225074;75;2915385;-67
2024/03/16 01:11:25;;;;;;;2.80;1.50;;;;;;;10.95;100.00;97634.16;1225611;75;2916419;-67
2024/03/16 01:13:58;;;;;;;2.05;1.50;;;;;;;10.80;100.00;97631.47;1199391;75;5010276;-67
2024/03/16 01:16:36;;;;;;;4.70;2.10;;;;;;;10.64;100.00;97628.03;1225142;75;2907167;-69
2024/03/16 01:19:09;;;;;;;3.40;1.40;;;;;;;10.66;100.00;97630.28;1225563;75;2913841;-67
2024/03/16 01:21:42;;;;;;;3.35;2.20;;;;;;;10.64;100.00;97627.28;1225193;75;2909334;-67
2024/03/16 01:24:15;;;;;;;3.35;1.90;;;;;;;10.65;100.00;97615.09;1225271;75;2933930;-66
2024/03/16 01:26:48;;;;;;;2.85;1.70;;;;;;;10.74;100.00;97617.69;1226151;75;2922041;-69
2024/03/16 01:29:24;;;;;;;2.65;1.70;;;;;;;10.88;100.00;97610.66;1224883;75;2913760;-65
2024/03/16 01:32:03;;;;;;;2.55;1.15;;;;;;;11.00;100.00;97609.56;1194103;75;5361160;-67
2024/03/16 01:34:36;;;;;;;1.65;1.15;;;;;;;11.13;100.00;97611.94;1226107;75;2925760;-66
2024/03/16 01:37:10;;;;;;;2.80;0.90;;;;;;;11.18;100.00;97603.03;1225200;75;2910687;-66
2024/03/16 01:39:43;;;;;;;2.35;1.35;;;;;;;10.84;100.00;97613.59;1223895;75;2923402;-67
2024/03/16 01:42:16;;;;;;;2.50;1.50;;;;;;;10.81;100.00;97608.34;1224193;75;2914157;-65
2024/03/16 01:45:14;;;;;;;2.60;1.60;;;;;;;10.58;100.00;97605.31;1225576;75;2916766;-67
2024/03/16 01:47:52;;;;;;;2.60;1.60;;;;;;;10.36;100.00;97611.19;1222747;75;2956345;-65
2024/03/16 01:50:25;;;;;;;4.50;1.80;;;;;;;10.47;100.00;97610.63;1223347;75;2932473;-66
2024/03/16 01:52:58;;;;;;;3.80;1.75;;;;;;;10.39;100.00;97601.28;1223950;75;2930001;-65
2024/03/16 01:55:31;;;;;;;3.30;2.10;;;;;;;10.42;100.00;97597.59;1225135;75;2918628;-65
2024/03/16 01:58:04;;;;;;;2.55;1.85;;;;;;;10.52;100.00;97604.47;1224704;75;2916019;-66
2024/03/16 02:00:38;;;;;;;2.20;1.55;;;;;;;10.69;100.00;97615.66;1226091;75;2916488;-66
2024/03/16 02:03:14;;;;;;;1.95;1.45;;;;;;;10.61;100.00;97617.28;1226053;75;2914993;-65
2024/03/16 02:05:46;;;;;;;3.25;2.20;;;;;;;10.44;100.00;97612.31;1225437;75;2914251;-67
2024/03/16 02:08:19;;;;;;;3.15;1.80;;;;;;;10.45;100.00;97610.34;1226205;75;2916661;-65
2024/03/16 02:10:52;;;;;;;2.95;1.85;;;;;;;10.39;100.00;97606.75;1225027;75;2923427;-66
2024/03/16 02:13:25;;;;;;;2.05;1.80;;;;;;;10.65;100.00;97610.38;1224175;75;2928811;-66
2024/03/16 02:15:58;;;;;;;2.65;1.55;;;;;;;10.51;100.00;97618.63;1225553;75;2913886;-68
2024/03/16 02:18:34;;;;;;;3.45;2.00;;;;;;;10.43;100.00;97610.06;1225393;75;2918822;-66
2024/03/16 02:21:13;;;;;;;2.05;1.65;;;;;;;10.53;100.00;97622.38;1224292;75;2915413;-65
2024/03/16 02:23:46;;;;;;;3.05;2.00;;;;;;;10.16;100.00;97622.81;1224968;75;2923641;-66
2024/03/16 02:26:19;;;;;;;3.90;2.55;;;;;;;10.06;100.00;97621.41;1224996;75;2914861;-65
2024/03/16 02:28:52;;;;;;;4.10;1.90;;;;;;;10.11;100.00;97620.75;1224500;75;2918132;-65
2024/03/16 02:31:25;;;;;;;4.00;2.35;;;;;;;10.19;100.00;97618.38;1224896;75;2921087;-66
2024/03/16 02:33:58;;;;;;;4.10;2.60;;;;;;;10.10;100.00;97605.56;1224701;75;2916038;-66
2024/03/16 02:36:33;;;;;;;4.25;2.50;;;;;;;10.10;100.00;97613.78;1225333;75;2921586;-65
2024/03/16 02:39:06;;;;;;;3.10;2.00;;;;;;;10.08;100.00;97618.19;1226215;75;2920453;-67
2024/03/16 02:41:39;;;;;;;2.75;1.90;;;;;;;10.33;100.00;97622.34;1225627;75;2927270;-67
2024/03/16 02:44:12;;;;;;;2.40;1.80;;;;;;;10.12;100.00;97621.50;1225508;75;2906975;-67
2024/03/16 02:46:45;;;;;;;2.55;1.90;;;;;;;10.25;100.00;97627.44;1225092;75;2914513;-66
2024/03/16 02:49:18;;;;;;;2.50;1.80;;;;;;;10.33;100.00;97627.81;1226249;75;2913269;-65
2024/03/16 02:51:53;;;;;;;2.45;1.70;;;;;;;10.26;100.00;97617.97;1225704;75;2911595;-67
2024/03/16 02:54:26;;;;;;;2.55;1.60;;;;;;;10.45;100.00;97621.28;1224935;75;2924363;-66
2024/03/16 02:56:59;;;;;;;1.85;1.30;;;;;;;10.64;100.00;97616.31;1225461;75;2916019;-66
2024/03/16 02:59:32;;;;;;;1.55;1.15;;;;;;;10.75;100.00;97615.72;1225569;75;2930073;-67
2024/03/16 03:02:05;;;;;;;1.55;1.00;;;;;;;10.74;100.00;97612.22;1225717;75;2914789;-66
2024/03/16 03:04:38;;;;;;;1.35;1.10;;;;;;;10.71;100.00;97607.72;1225937;75;2919507;-66
2024/03/16 03:07:14;;;;;;;1.20;0.90;;;;;;;10.76;100.00;97607.03;1225468;75;2932653;-68
2024/03/16 03:09:47;;;;;;;1.05;0.90;;;;;;;10.73;100.00;97610.72;1224926;75;2916709;-66
2024/03/16 03:12:20;;;;;;;1.20;0.85;;;;;;;10.75;100.00;97615.72;1225693;75;2918726;-65
2024/03/16 03:14:53;;;;;;;2.45;1.55;;;;;;;10.49;100.00;97621.09;1225082;75;2914803;-65
2024/03/16 03:17:26;;;;;;;1.80;1.10;;;;;;;10.62;100.00;97624.25;1225406;75;2911774;-68
2024/03/16 03:19:59;;;;;;;1.50;1.10;;;;;;;10.59;100.00;97625.97;1225267;75;2924404;-70
2024/03/16 03:22:34;;;;;;;2.15;1.10;;;;;;;10.38;100.00;97638.09;1224375;75;2915515;-65
2024/03/16 03:25:08;;;;;;;2.15;1.50;;;;;;;10.47;100.00;97627.03;1225880;75;2914855;-67
2024/03/16 03:27:41;;;;;;;1.55;1.20;;;;;;;10.59;100.00;97617.75;1225122;75;2921458;-67
2024/03/16 03:30:15;;;;;;;1.85;1.40;;;;;;;10.41;100.00;97629.69;1224663;75;2921723;-65
2024/03/16 03:32:47;;;;;;;1.15;1.05;;;;;;;10.34;100.00;97623.84;1225135;75;2924335;-65
2024/03/16 03:35:20;;;;;;;2.40;1.60;;;;;;;10.43;100.00;97623.72;1224456;75;2916828;-66
2024/03/16 03:37:56;;;;;;;1.60;1.25;;;;;;;10.39;100.00;97629.41;1225356;75;2914662;-66
2024/03/16 03:40:28;;;;;;;2.10;1.20;;;;;;;10.51;100.00;97615.88;1224930;75;2914058;-65
2024/03/16 03:43:04;;;;;;;1.05;0.90;;;;;;;10.59;100.00;97612.28;1225709;75;2916513;-67
2024/03/16 03:45:49;;;;;;;0.85;0.80;;;;;;;10.58;100.00;97616.25;1226333;75;2909723;-66
2024/03/16 03:48:35;;;;;;;1.50;0.90;;;;;;;10.65;100.00;97629.53;1224711;75;2920581;-65
2024/03/16 03:51:08;;;;;;;2.10;1.15;;;;;;;10.60;100.00;97634.91;1225163;75;2914927;-66
2024/03/16 03:53:44;;;;;;;2.05;1.05;;;;;;;10.52;100.00;97639.28;1225332;75;2925125;-66
2024/03/16 03:56:17;;;;;;;1.20;0.80;;;;;;;10.54;100.00;97643.06;1225825;75;2911441;-66
2024/03/16 03:58:49;;;;;;;1.10;1.00;;;;;;;10.69;100.00;97642.28;1225689;75;2928340;-65
2024/03/16 04:01:24;;;;;;;1.30;1.00;;;;;;;10.65;100.00;97645.97;1223476;75;2926161;-68
2024/03/16 04:03:57;;;;;;;2.00;0.95;;;;;;;10.52;100.00;97642.78;1225524;75;2912919;-66
2024/03/16 04:06:30;;;;;;;0.80;0.80;;;;;;;10.63;100.00;97645.69;1225201;75;2914848;-67
2024/03/16 04:09:05;;;;;;;1.90;0.80;;;;;;;10.65;100.00;97648.72;1224436;75;2927920;-66
2024/03/16 04:11:38;;;;;;;0.70;0.70;;;;;;;10.60;100.00;97646.63;1225425;75;2918641;-66
2024/03/16 04:14:11;;;;;;;1.95;1.00;;;;;;;10.47;100.00;97648.94;1223338;75;2920371;-66
2024/03/16 04:16:44;;;;;;;1.25;0.90;;;;;;;10.52;100.00;97642.78;1224232;75;2922737;-66
2024/03/16 04:19:17;;;;;;;1.35;1.00;;;;;;;10.60;100.00;97649.34;1225171;75;2921879;-66
2024/03/16 04:21:51;;;;;;;0.75;0.75;;;;;;;10.59;100.00;97644.38;1225423;75;2921817;-66
2024/03/16 04:24:26;;;;;;;0.85;0.60;;;;;;;10.65;100.00;97645.97;1225059;75;2917656;-68
2024/03/16 04:26:59;;;;;;;1.20;0.70;;;;;;;10.57;100.00;97646.84;1224889;75;2914852;-66
2024/03/16 04:29:33;;;;;;;0.75;0.70;;;;;;;10.52;100.00;97644.78;1225636;75;2915524;-66
2024/03/16 04:32:06;;;;;;;0.80;0.50;;;;;;;10.54;100.00;97648.53;1226006;75;2912422;-65
2024/03/16 04:34:39;;;;;;;0.90;0.65;;;;;;;10.44;100.00;97653.38;1224670;75;2971713;-66
2024/03/16 04:37:11;;;;;;;0.50;0.50;;;;;;;10.56;100.00;97648.81;1225560;75;2916874;-66
2024/03/16 04:39:47;;;;;;;0.50;0.50;;;;;;;10.56;100.00;97648.81;1224964;75;2916270;-65
2024/03/16 04:42:20;;;;;;;0.60;0.50;;;;;;;10.56;100.00;97653.53;1225550;75;2923607;-66
2024/03/16 04:44:53;;;;;;;0.70;0.70;;;;;;;10.48;100.00;97644.19;1225193;75;2925169;-65
2024/03/16 04:47:26;;;;;;;0.55;0.40;;;;;;;10.53;100.00;97644.28;1225757;75;2932011;-66
2024/03/16 04:49:59;;;;;;;0.70;0.65;;;;;;;10.22;100.00;97655.72;1226006;75;2915341;-67
2024/03/16 04:52:32;;;;;;;1.65;1.10;;;;;;;10.20;100.00;97652.72;1225935;75;2915090;-68
2024/03/16 04:55:08;;;;;;;0.65;0.60;;;;;;;10.34;100.00;97654.72;1224600;75;2917401;-66
2024/03/16 04:57:41;;;;;;;2.00;0.60;;;;;;;10.35;100.00;97656.22;1226543;75;2920929;-66
2024/03/16 05:00:16;;;;;;;0.70;0.60;;;;;;;10.40;100.00;97658.28;1224083;75;2940530;-66
2024/03/16 05:02:49;;;;;;;0.40;0.40;;;;;;;10.37;100.00;97666.69;1224758;75;2914191;-66
2024/03/16 05:05:22;;;;;;;0.70;0.70;;;;;;;10.38;100.00;97666.19;1225845;75;2938485;-64
2024/03/16 05:07:55;;;;;;;1.05;0.65;;;;;;;10.28;100.00;97661.28;1225153;75;2917852;-67
2024/03/16 05:10:31;;;;;;;0.80;0.65;;;;;;;10.34;100.00;97665.66;1224601;75;2912328;-66
2024/03/16 05:13:04;;;;;;;0.50;0.50;;;;;;;10.32;100.00;97662.63;1224264;75;2924741;-66
2024/03/16 05:15:37;;;;;;;0.70;0.65;;;;;;;10.09;100.00;97675.16;1223068;75;2945973;-66
2024/03/16 05:18:10;;;;;;;1.10;0.70;;;;;;;10.10;100.00;97675.91;1224802;75;2925228;-65
2024/03/16 05:20:44;;;;;;;1.30;0.90;;;;;;;10.06;100.00;97676.09;1225471;75;2918735;-66
2024/03/16 05:23:17;;;;;;;1.05;0.85;;;;;;;10.07;100.00;97674.88;1225351;75;2916084;-64
2024/03/16 05:25:53;;;;;;;1.35;1.15;;;;;;;10.08;100.00;97681.09;1226010;75;2928270;-65
2024/03/16 05:28:26;;;;;;;1.75;1.00;;;;;;;9.96;100.00;97677.44;1224662;75;2921080;-66
2024/03/16 05:30:59;;;;;;;1.55;1.30;;;;;;;9.87;100.00;97675.53;1224559;75;2915652;-66
2024/03/16 05:33:34;;;;;;;3.45;1.80;;;;;;;9.95;100.00;97686.84;1225032;75;2918496;-64
2024/03/16 05:36:09;;;;;;;2.10;1.60;;;;;;;10.07;100.00;97680.34;1225638;75;2913183;-67
2024/03/16 05:38:43;;;;;;;3.95;1.90;;;;;;;9.93;100.00;97689.28;1225186;75;2930569;-64
2024/03/16 05:41:19;;;;;;;2.35;1.45;;;;;;;9.93;100.00;97692.81;1225141;75;2915546;-66
2024/03/16 05:43:53;;;;;;;2.05;1.65;;;;;;;9.84;100.00;97684.69;1225751;75;2929408;-68
2024/03/16 05:46:25;;;;;;;2.35;1.95;;;;;;;9.81;100.00;97688.34;1226059;75;2914671;-65
2024/03/16 05:48:58;;;;;;;2.60;1.40;;;;;;;9.87;100.00;97693.91;1225993;75;2910544;-66
2024/03/16 05:51:31;;;;;;;2.05;1.20;;;;;;;9.94;100.00;97688.84;1225055;75;2924773;-68
2024/03/16 05:54:04;;;;;;;2.85;1.40;;;;;;;9.91;100.00;97689.78;1224006;75;2916544;-66
2024/03/16 05:56:40;;;;;;;2.35;1.40;;;;;;;10.05;100.00;97696.47;1224819;75;2920293;-64
2024/03/16 05:59:13;;;;;;;2.05;1.15;;;;;;;10.09;100.00;97683.38;1225161;75;2919608;-65
2024/03/16 06:01:46;;;;;;;1.30;1.00;;;;;;;10.14;100.00;97690.16;1225647;75;2924814;-67
2024/03/16 06:04:19;;;;;;;1.30;0.90;;;;;;;10.31;100.00;97693.19;1223967;75;2942406;-68
2024/03/16 06:06:52;;;;;;;1.15;0.95;;;;;;;10.27;100.00;97689.88;1225594;75;2916938;-66
2024/03/16 06:09:25;;;;;;;1.55;1.15;;;;;;;10.28;100.00;97700.38;1225374;75;2919199;-67
2024/03/16 06:12:01;;;;;;;1.30;1.15;;;;;;;10.31;100.00;97696.69;1225313;75;2908895;-66
2024/03/16 06:14:33;;;;;;;2.40;1.20;;;;;;;10.57;100.00;97699.59;1221068;75;2923957;-66
2024/03/16 06:17:07;;;;;;;1.45;1.20;;;;;;;10.63;100.00;97700.44;1225502;75;2922470;-65
2024/03/16 06:19:39;;;;;;;1.40;1.30;;;;;;;10.61;100.00;97704.88;1225199;75;2910719;-67
2024/03/16 06:22:13;;;;;;;1.50;1.10;;;;;;;10.61;100.00;97702.91;1224948;75;2917760;-64
2024/03/16 06:24:47;;;;;;;2.75;2.00;;;;;;;10.73;100.00;97714.03;1225547;75;2915603;-67
2024/03/16 06:27:22;;;;;;;2.75;1.75;;;;;;;10.88;100.00;97701.78;1226172;75;2920028;-65
2024/03/16 06:29:57;;;;;;;2.60;1.85;;;;;;;10.88;100.00;97709.25;1226322;75;2916843;-63
2024/03/16 06:32:34;;;;;;;1.75;1.45;;;;;;;10.87;100.00;97713.22;1224715;75;2921650;-66
2024/03/16 06:35:08;;;;;;;2.15;1.30;;;;;;;10.91;100.00;97721.25;1225366;75;2922025;-67
2024/03/16 06:37:40;;;;;;;2.15;1.40;;;;;;;10.98;100.00;97716.13;1223948;75;2923272;-66
2024/03/16 06:40:15;;;;;;;1.30;1.20;;;;;;;10.94;100.00;97728.50;1225162;75;2917575;-67
2024/03/16 06:42:51;;;;;;;2.10;1.60;;;;;;;10.81;100.00;97729.56;1224838;75;2924723;-65
2024/03/16 06:45:23;;;;;;;4.05;2.80;;;;;;;10.52;100.00;97737.84;1225243;75;2923957;-67
2024/03/16 06:47:57;;;;;;;4.50;2.75;;;;;;;10.64;100.00;97737.53;1225637;75;2911613;-66
2024/03/16 06:50:31;;;;;;;5.15;2.30;;;;;;;10.60;100.00;97747.16;1224019;75;2916362;-66
2024/03/16 06:53:06;;;;;;;2.40;1.90;;;;;;;10.85;100.00;97751.31;1224481;75;2924529;-67
2024/03/16 06:55:40;;;;;;;3.15;2.15;;;;;;;10.91;100.00;97751.38;1224977;75;2916094;-69
2024/03/16 06:58:16;;;;;;;2.90;1.90;;;;;;;11.09;100.00;97757.38;1224556;75;2924118;-66
2024/03/16 07:00:49;;;;;;;2.20;1.50;;;;;;;11.25;100.00;97756.09;1224637;75;2920819;-66
2024/03/16 07:03:22;;;;;;;1.55;1.40;;;;;;;11.41;100.00;97756.81;1223756;75;2902405;-67
2024/03/16 07:05:55;;;;;;;1.80;1.30;;;;;;;11.29;100.00;97753.91;1224528;67;2921454;-66
2024/03/16 07:08:27;;;;;;;2.00;1.30;;;;;;;11.43;100.00;97757.09;1225379;75;2919785;-64
2024/03/16 07:11:00;;;;;;;1.45;1.35;;;;;;;11.45;100.00;97758.09;1224430;75;2921873;-65
2024/03/16 07:13:36;;;;;;;3.80;2.60;;;;;;;11.59;100.00;97755.78;1224767;75;2918645;-65
2024/03/16 07:16:15;;;;;;;2.75;2.10;;;;;;;11.52;100.00;97754.97;1225719;75;2927142;-65
2024/03/16 07:18:47;;;;;;;3.05;2.20;;;;;;;11.72;100.00;97751.44;1225138;75;2918077;-64
2024/03/16 07:21:21;;;;;;;4.00;2.70;;;;;;;11.48;100.00;97750.91;1224260;75;2930273;-64
2024/03/16 07:23:54;;;;;;;4.05;3.00;;;;;;;11.57;100.00;97750.78;1224844;75;2928255;-65
2024/03/16 07:26:28;;;;;;;4.75;2.80;;;;;;;11.34;100.00;97744.25;1226181;75;2913801;-68
2024/03/16 07:29:03;;;;;;;2.90;2.20;;;;;;;11.75;100.00;97757.22;1224802;75;2928827;-65
2024/03/16 07:31:36;;;;;;;8.85;5.90;;;;;;;11.78;100.00;97765.22;1225750;75;2922580;-66
2024/03/16 07:34:09;;;;;;;6.35;4.55;;;;;;;11.92;100.00;97761.66;1226069;75;2922990;-63
2024/03/16 07:36:42;;;;;;;4.80;3.75;;;;;;;11.65;100.00;97765.59;1225938;75;2924889;-66
2024/03/16 07:39:15;;;;;;;5.70;3.90;;;;;;;11.66;100.00;97761.59;1226135;75;2931372;-65
2024/03/16 07:41:48;;;;;;;4.40;3.50;;;;;;;11.96;100.00;97768.97;1226418;75;2919331;-66
2024/03/16 07:44:23;;;;;;;5.20;3.40;;;;;;;11.77;100.00;97771.94;1226521;75;2919543;-64
2024/03/16 07:46:56;;;;;;;4.05;3.05;;;;;;;11.87;100.00;97776.09;1226143;75;2929433;-65
2024/03/16 07:49:29;;;;;;;4.15;2.95;;;;;;;11.77;100.00;97779.44;1227234;75;2916712;-65
2024/03/16 07:52:02;;;;;;;3.35;2.15;;;;;;;12.22;100.00;97780.72;1224978;75;2920060;-66
2024/03/16 07:54:35;;;;;;;3.90;2.20;;;;;;;11.61;100.00;97786.22;1227045;75;2917561;-65
2024/03/16 07:57:08;;;;;;;4.35;2.60;;;;;;;11.64;100.00;97788.75;1226392;75;2912805;-64
2024/03/16 07:59:44;;;;;;;6.95;2.90;;;;;;;11.66;100.00;97783.53;1224838;75;2915570;-66
2024/03/16 08:02:17;;;;;;;4.65;2.70;;;;;;;11.67;100.00;97784.31;1226265;75;2915546;-66
2024/03/16 08:04:50;;;;;;;3.40;2.65;;;;;;;11.79;100.00;97788.69;1223852;75;2932176;-68
2024/03/16 08:07:23;;;;;;;3.95;2.30;;;;;;;12.15;100.00;97787.38;1226171;75;2926270;-66
2024/03/16 08:09:56;;;;;;;3.50;2.45;;;;;;;12.01;100.00;97796.44;1226341;75;2910592;-67
2024/03/16 08:12:29;;;;;;;4.65;2.80;;;;;;;12.18;100.00;97793.88;1225750;75;2918007;-66
2024/03/16 08:15:05;;;;;;;4.10;2.85;;;;;;;12.20;100.00;97791.41;1225721;75;2922624;-64
2024/03/16 08:17:38;;;;;;;7.05;4.80;;;;;;;12.27;100.00;97791.00;1223274;75;2933030;-65
2024/03/16 08:20:12;;;;;;;8.75;4.50;;;;;;;12.68;100.00;97784.63;1225209;75;2934200;-66
2024/03/16 08:22:48;;;;;;;4.20;2.90;;;;;;;13.14;100.00;97795.47;1226160;75;2923031;-64
2024/03/16 08:25:20;;;;;;;3.85;2.35;;;;;;;13.12;100.00;97800.69;1225065;75;2922076;-66
2024/03/16 08:27:53;;;;;;;5.00;3.00;;;;;;;12.55;100.00;97791.28;1225209;75;2935842;-64
2024/03/16 08:30:29;;;;;;;2.95;2.15;;;;;;;13.18;100.00;97796.00;1224939;75;2916177;-66
2024/03/16 08:33:02;;;;;;;2.45;1.80;;;;;;;13.65;100.00;97795.78;1225196;75;2918187;-64
2024/03/16 08:35:35;;;;;;;2.40;1.90;;;;;;;14.19;100.00;97790.22;1225168;67;2923555;-67
2024/03/16 08:38:08;;;;;;;2.85;2.00;;;;;;;14.23;100.00;97798.22;1225064;75;2923108;-65
2024/03/16 08:40:40;;;;;;;1.65;1.50;;;;;;;14.33;100.00;97793.25;1224256;75;2914951;-65
2024/03/16 08:43:13;;;;;;;2.50;1.75;;;;;;;14.45;100.00;97795.50;1223766;75;2916415;-66
2024/03/16 08:45:49;;;;;;;3.50;2.60;;;;;;;14.05;100.00;97804.94;1225697;75;2920779;-65
2024/03/16 08:48:21;;;;;;;2.90;2.20;;;;;;;14.40;100.00;97798.28;1225853;75;2916987;-64
2024/03/16 08:50:54;;;;;;;3.70;2.05;;;;;;;14.48;96.74;97802.81;1222978;75;2930961;-63
2024/03/16 08:53:27;;;;;;;2.05;1.50;;;;;;;14.25;98.71;97798.50;1225069;75;2924883;-65
2024/03/16 08:56:01;;;;;;;2.70;2.10;;;;;;;13.46;100.00;97800.94;1224738;75;2937200;-65
2024/03/16 08:58:33;;;;;;;3.45;2.35;;;;;;;13.28;100.00;97795.84;1223700;75;2921643;-65
2024/03/16 09:01:09;;;;;;;5.35;4.45;;;;;;;13.42;100.00;97797.66;1225103;75;2922595;-67
2024/03/16 09:03:42;;;;;;;7.00;5.95;;;;;;;13.83;100.00;97792.63;1224749;75;2923837;-63
2024/03/16 09:06:15;;;;;;;5.25;4.30;;;;;;;14.14;100.00;97799.22;1225054;75;2917834;-65
2024/03/16 09:08:47;;;;;;;5.65;3.15;;;;;;;14.05;100.00;97800.19;1225330;75;2911729;-67
2024/03/16 09:11:20;;;;;;;3.10;2.30;;;;;;;14.52;100.00;97791.53;1224962;75;2912612;-65
2024/03/16 09:13:53;;;;;;;3.10;2.75;;;;;;;14.30;100.00;97794.25;1224228;75;2914044;-65
2024/03/16 09:16:28;;;;;;;5.30;3.90;;;;;;;13.98;100.00;97797.16;1226054;75;2894027;-68
2024/03/16 09:19:01;;;;;;;5.20;3.15;;;;;;;14.34;100.00;97797.53;1225390;75;2923020;-68
2024/03/16 09:21:34;;;;;;;2.80;2.20;;;;;;;14.30;100.00;97808.75;1225044;75;2921381;-65
2024/03/16 09:24:08;;;;;;;2.45;1.75;;;;;;;14.76;95.76;97804.09;1225803;75;2935530;-67
2024/03/16 09:26:41;;;;;;;2.70;1.90;;;;;;;14.57;96.81;97799.06;1224962;75;2923768;-63
2024/03/16 09:29:13;;;;;;;2.35;1.85;;;;;;;14.65;96.11;97802.84;1225203;75;2919663;-66
2024/03/16 09:31:49;;;;;;;2.80;2.00;;;;;;;14.24;97.46;97803.25;1224350;75;2918605;-66
2024/03/16 09:34:23;;;;;;;2.65;2.00;;;;;;;15.06;94.05;97801.59;1225102;75;2924590;-64
2024/03/16 09:36:55;;;;;;;2.00;1.60;;;;;;;14.33;93.30;97805.00;1223632;75;2976656;-66
2024/03/16 09:39:29;;;;;;;3.00;2.40;;;;;;;14.63;95.93;97810.84;1224472;75;2946225;-65
2024/03/16 09:42:05;;;;;;;3.60;1.80;;;;;;;14.36;93.54;97814.28;1224827;75;2915807;-68
2024/03/16 09:44:38;;;;;;;2.85;2.15;;;;;;;14.30;96.97;97811.53;1226171;75;2910307;-65
2024/03/16 09:47:20;;;;;;;2.65;1.80;;;;;;;14.42;99.68;97812.28;1225055;75;2920290;-64
2024/03/16 09:49:53;;;;;;;3.45;2.45;;;;;;;14.20;98.90;97815.75;1224702;75;2928548;-68
2024/03/16 09:52:28;;;;;;;3.80;1.85;;;;;;;13.72;100.00;97824.81;1224777;75;2928610;-65
2024/03/16 09:55:01;;;;;;;4.70;2.15;;;;;;;13.32;100.00;97826.59;1223851;75;2924506;-64
2024/03/16 09:57:36;;;;;;;3.45;2.00;;;;;;;13.39;100.00;97828.88;1224240;75;2933315;-65
2024/03/16 10:00:11;;;;;;;3.50;2.65;;;;;;;13.38;100.00;97838.38;1225817;75;2923420;-68
2024/03/16 10:02:47;;;;;;;2.75;1.80;;;;;;;13.48;100.00;97838.94;1225022;75;2913218;-66
2024/03/16 10:05:20;;;;;;;4.25;1.75;;;;;;;13.39;100.00;97840.63;1224584;75;2911861;-66
2024/03/16 10:07:53;;;;;;;4.75;2.00;;;;;;;13.27;100.00;97850.06;1224629;75;2916887;-65
2024/03/16 10:10:25;;;;;;;2.75;1.75;;;;;;;13.33;100.00;97839.09;1226345;75;2924832;-64
2024/03/16 10:13:08;;;;;;;4.05;1.80;;;;;;;13.18;100.00;97844.69;1224989;75;2928603;-64
2024/03/16 10:15:45;;;;;;;4.15;2.30;;;;;;;13.17;100.00;97846.69;1225204;75;2925851;-66
2024/03/16 10:18:21;;;;;;;3.00;1.75;;;;;;;13.09;100.00;97842.91;1223861;75;2921316;-64
2024/03/16 10:20:58;;;;;;;2.75;2.15;;;;;;;13.06;100.00;97856.84;1224241;75;2919508;-67
2024/03/16 10:23:32;;;;;;;3.95;1.85;;;;;;;13.04;100.00;97849.13;1224500;75;2928646;-64
2024/03/16 10:26:08;;;;;;;2.35;1.50;;;;;;;13.24;100.00;97850.25;1225294;75;2911666;-65
2024/03/16 10:28:41;;;;;;;2.10;1.50;;;;;;;13.46;100.00;97847.69;1209413;75;4056284;-63
2024/03/16 10:31:19;;;;;;;1.50;1.30;;;;;;;13.74;100.00;97842.34;1224700;75;2929466;-66
2024/03/16 10:33:55;;;;;;;1.10;0.90;;;;;;;13.83;100.00;97833.88;1225762;75;2918301;-64
2024/03/16 10:36:29;;;;;;;3.00;1.95;;;;;;;13.41;100.00;97837.41;1226692;75;2915077;-66
2024/03/16 10:39:02;;;;;;;4.35;2.90;;;;;;;13.50;100.00;97833.72;1226433;75;2925105;-65
2024/03/16 10:41:35;;;;;;;3.85;2.60;;;;;;;13.57;100.00;97831.25;1226296;75;2918845;-63
2024/03/16 10:44:12;;;;;;;2.65;2.05;;;;;;;13.67;100.00;97817.31;1226482;75;2925380;-65
2024/03/16 10:46:45;;;;;;;2.40;1.70;;;;;;;13.85;100.00;97812.13;1226183;75;2912766;-65
2024/03/16 10:49:20;;;;;;;3.10;2.00;;;;;;;13.83;100.00;97806.38;1226819;75;2922535;-66
2024/03/16 10:51:53;;;;;;;2.60;1.45;;;;;;;13.64;100.00;97810.78;1224735;75;2933522;-65
2024/03/16 10:54:27;;;;;;;2.70;1.50;;;;;;;13.97;100.00;97804.66;1225297;75;2917508;-66
2024/03/16 10:57:00;;;;;;;1.95;1.20;;;;;;;14.04;100.00;97809.69;1225960;75;2918249;-65
2024/03/16 10:59:34;;;;;;;1.95;1.40;;;;;;;13.99;100.00;97795.91;1225411;75;2918604;-64
2024/03/16 11:02:13;;;;;;;5.25;1.70;;;;;;;14.12;100.00;97800.94;1227555;75;2913027;-64
2024/03/16 11:04:58;;;;;;;3.50;1.50;;;;;;;14.25;100.00;97795.75;1225990;75;2911678;-67
2024/03/16 11:07:30;;;;;;;2.55;1.30;;;;;;;14.22;100.00;97788.47;1225544;75;2917069;-66
2024/03/16 11:10:03;;;;;;;1.45;0.90;;;;;;;14.34;100.00;97787.25;1226184;75;2919346;-61
2024/03/16 11:12:37;;;;;;;1.35;0.85;;;;;;;14.72;100.00;97798.06;1224567;75;2917346;-65
2024/03/16 11:15:37;;;;;;;1.55;1.10;;;;;;;14.42;100.00;97798.53;1225372;75;2913093;-65
2024/03/16 11:18:52;;;;;;;1.45;0.95;;;;;;;14.77;100.00;97800.09;1226162;75;2921204;-66
2024/03/16 11:21:31;;;;;;;0.90;0.80;;;;;;;14.75;92.44;97803.34;1226167;75;2918810;-67
2024/03/16 11:24:06;;;;;;;2.40;1.20;;;;;;;14.71;97.23;97800.09;1227115;75;2926014;-64
2024/03/16 11:26:39;;;;;;;3.35;1.85;;;;;;;14.53;100.00;97800.53;1225913;75;2921232;-65
2024/03/16 11:29:18;;;;;;;1.95;1.40;;;;;;;15.03;100.00;97799.81;1225924;75;2932426;-64
2024/03/16 11:31:53;;;;;;;1.85;1.40;;;;;;;15.06;98.73;97809.88;1226358;75;2925719;-64
2024/03/16 11:34:26;;;;;;;2.00;1.50;;;;;;;14.88;100.00;97789.06;1225763;75;2914733;-65
2024/03/16 11:37:04;;;;;;;2.45;1.50;;;;;;;14.81;100.00;97795.81;1224225;75;2927909;-67
2024/03/16 11:39:37;;;;;;;3.20;1.50;;;;;;;15.48;97.14;97794.25;1226367;75;2922582;-67
2024/03/16 11:42:14;;;;;;;3.00;1.70;;;;;;;15.66;96.88;97790.94;1225728;75;2916815;-67